Flight Track Log - Related Links

Times and Time Zones

All times are in EDT time to prevent confusion due to time zone crossing. See the N447SC flight status page for this flight to view local times or setup timezone preferences in your user account.

Time Position Orientation Groundspeed Altitude Reporting Facility
EDT Latitude Longitude Course Direction KTS MPH feet Rate Location/Type
Sun 06:15:50 PM 38.5667 -90.1167 27° Northeast 105 121 1,500  Level Gateway (St. Louis) TRACON
Sun 06:16:44 PM 38.5833 -90.1000 38° Northeast 112 129 2,300 579 Climbing Gateway (St. Louis) TRACON
Sun 06:17:44 PM 38.6167 -90.0667 38° Northeast 139 160 2,600 267 Climbing Gateway (St. Louis) TRACON
Sun 06:18:14 PM 38.6325 -90.0589 21° North 135 155 2,700 659 Climbing Kansas City Center
Sun 06:19:15 PM 38.6661 -90.0308 33° Northeast 142 163 3,600 1,016 Climbing Kansas City Center
Sun 06:20:18 PM 38.7017 -90.0028 32° Northeast 134 154 4,800 1,016 Climbing Kansas City Center
Sun 06:21:00 PM 38.8316 -89.9856 27° Northeast  Level FlightAware Approximate
Sun 06:21:19 PM 38.7256 -89.9897 23° Northeast 109 125 5,700  Level Kansas City Center
Sun 06:22:23 PM 38.7489 -89.9803 18° North 90 104 6,500 726 Climbing Kansas City Center
Sun 06:23:23 PM 38.7725 -89.9653 26° Northeast 93 107 7,200 242 Climbing Kansas City Center
Sun 06:24:27 PM 38.8047 -89.9444 27° Northeast 126 145 7,000 -48 Descending Kansas City Center
Sun 06:25:27 PM 38.8456 -89.9200 25° Northeast 155 178 7,100 48 Climbing Kansas City Center
Sun 06:26:31 PM 38.8975 -89.8917 23° Northeast 167 192 7,100  Level Kansas City Center
Sun 06:27:31 PM 38.9447 -89.8661 23° Northeast 169 194 7,100 -49 Level Kansas City Center
Sun 06:28:34 PM 38.9886 -89.8397 25° Northeast 173 199 7,000 -48 Descending Kansas City Center
Sun 06:29:35 PM 39.0364 -89.8122 24° Northeast 174 200 7,000 48 Level Kansas City Center
Sun 06:30:39 PM 39.0811 -89.7883 23° Northeast 174 200 7,100  Climbing Kansas City Center
Sun 06:31:40 PM 39.1253 -89.7617 25° Northeast 175 201 7,000 -48 Descending Kansas City Center
Sun 06:32:44 PM 39.1733 -89.7294 27° Northeast 178 205 7,000  Level Kansas City Center
Sun 06:33:45 PM 39.2167 -89.7042 24° Northeast 179 206 7,000 49 Level Kansas City Center
Sun 06:34:46 PM 39.2619 -89.6761 26° Northeast 181 208 7,100  Climbing Kansas City Center
Sun 06:36:50 PM 39.3517 -89.6169 27° Northeast 182 209 7,000 -32 Descending Kansas City Center
Sun 06:37:51 PM 39.4064 -89.5817 26° Northeast 183 211 7,000 48 Level Kansas City Center
Sun 06:38:54 PM 39.4522 -89.5536 25° Northeast 183 211 7,100  Climbing Kansas City Center
Sun 06:39:58 PM 39.4983 -89.5219 28° Northeast 184 212 7,000 -48 Descending Kansas City Center
Sun 06:40:58 PM 39.5442 -89.4944 25° Northeast 184 212 7,000 48 Level Kansas City Center
Sun 06:42:02 PM 39.5908 -89.4678 24° Northeast 183 211 7,100  Climbing Kansas City Center
Sun 06:43:03 PM 39.6361 -89.4386 26° Northeast 183 211 7,000  Descending Kansas City Center
Sun 06:44:04 PM 39.6908 -89.4067 24° Northeast 181 208 7,100  Climbing Kansas City Center
Sun 06:45:07 PM 39.7369 -89.3781 26° Northeast 181 208 7,000  Descending Kansas City Center
Sun 06:46:09 PM 39.7833 -89.3500 25° Northeast 183 211 7,100 49 Climbing Kansas City Center
Sun 06:47:10 PM 39.8283 -89.3214 26° Northeast 182 209 7,100 -48 Level Kansas City Center
Sun 06:48:13 PM 39.8750 -89.2931 25° Northeast 184 212 7,000 -48 Descending Kansas City Center
Sun 06:49:15 PM 39.9211 -89.2650 25° Northeast 184 212 7,000 48 Level Kansas City Center
Sun 06:50:18 PM 39.9761 -89.2300 26° Northeast 184 212 7,100 -194 Climbing Kansas City Center
Sun 06:51:19 PM 40.0233 -89.2033 23° Northeast 185 213 6,600 -532 Descending Kansas City Center
Sun 06:52:22 PM 40.0719 -89.1747 24° Northeast 190 219 6,000 -629 Descending Kansas City Center
Sun 06:53:23 PM 40.1164 -89.1469 26° Northeast 182 209 5,300 -689 Descending Kansas City Center
Sun 06:54:24 PM 40.1597 -89.1192 26° Northeast 176 203 4,600 -774 Descending Kansas City Center
Sun 06:55:27 PM 40.2042 -89.0933 24° Northeast 174 200 3,700 -968 Descending Kansas City Center
Sun 06:56:28 PM 40.2564 -89.0578 27° Northeast 175 201 2,600 -923 Descending Kansas City Center
Sun 06:56:58 PM 40.2753 -89.0436 30° Northeast 179 206 2,300 -130 Descending Chicago Center
Sun 06:58:00 PM 40.3189 -89.0111 30° Northeast 180 207 2,400  Climbing Chicago Center
Sun 06:59:02 PM 40.3664 -88.9708 33° Northeast 176 203 2,300 -194 Descending Chicago Center
Sun 07:00:04 PM 40.4025 -88.9281 42° Northeast 175 201 2,000 -242 Descending Chicago Center
Sun 07:01:06 PM 40.4378 -88.8875 41° Northeast 174 200 1,800 -290 Descending Chicago Center
Sun 07:02:08 PM 40.4694 -88.8761 15° North 147 169 1,400 -387 Descending Chicago Center

Login

Don't have an account? Register now (free) for customized features, flight alerts, and more!